sensor_id;sensor_type;location;lat;lon;timestamp;pressure;altitude;pressure_sealevel;temperature;humidity
30708;BME280;17458;48.958;8.284;2022-09-09T00:00:11;99937.53;;;18.45;80.44
30708;BME280;17458;48.958;8.284;2022-09-09T00:03:07;99937.50;;;18.43;80.03
30708;BME280;17458;48.958;8.284;2022-09-09T00:06:01;99944.63;;;18.40;79.00
30708;BME280;17458;48.958;8.284;2022-09-09T00:08:59;99934.63;;;18.27;79.44
30708;BME280;17458;48.958;8.284;2022-09-09T00:19:11;99940.34;;;18.57;78.55
30708;BME280;17458;48.958;8.284;2022-09-09T00:22:14;99936.72;;;18.52;79.04
30708;BME280;17458;48.958;8.284;2022-09-09T00:25:13;99935.88;;;18.56;78.75
30708;BME280;17458;48.958;8.284;2022-09-09T00:28:00;99942.06;;;18.49;79.21
30708;BME280;17458;48.958;8.284;2022-09-09T00:30:46;99948.41;;;18.56;78.31
30708;BME280;17458;48.958;8.284;2022-09-09T00:33:33;99946.59;;;18.55;78.49
30708;BME280;17458;48.958;8.284;2022-09-09T00:36:21;99936.00;;;18.64;78.72
30708;BME280;17458;48.958;8.284;2022-09-09T00:39:16;99940.50;;;18.68;78.61
30708;BME280;17458;48.958;8.284;2022-09-09T00:45:19;99949.13;;;18.41;78.49
30708;BME280;17458;48.958;8.284;2022-09-09T00:48:12;99940.97;;;18.33;78.47
30708;BME280;17458;48.958;8.284;2022-09-09T00:51:02;99949.03;;;18.32;77.89
30708;BME280;17458;48.958;8.284;2022-09-09T00:57:07;99959.84;;;18.36;77.88
30708;BME280;17458;48.958;8.284;2022-09-09T01:00:23;99956.94;;;18.20;78.96
30708;BME280;17458;48.958;8.284;2022-09-09T01:06:30;99956.91;;;18.18;79.57
30708;BME280;17458;48.958;8.284;2022-09-09T01:09:26;99965.03;;;18.21;79.71
30708;BME280;17458;48.958;8.284;2022-09-09T01:15:20;99981.66;;;17.93;79.06
30708;BME280;17458;48.958;8.284;2022-09-09T01:18:12;99983.50;;;17.95;77.46
30708;BME280;17458;48.958;8.284;2022-09-09T01:21:38;99973.84;;;18.13;77.54
30708;BME280;17458;48.958;8.284;2022-09-09T01:28:11;99966.91;;;17.65;83.11
30708;BME280;17458;48.958;8.284;2022-09-09T01:30:58;99981.63;;;17.35;85.55
30708;BME280;17458;48.958;8.284;2022-09-09T01:33:45;99977.09;;;17.33;86.94
30708;BME280;17458;48.958;8.284;2022-09-09T01:36:38;99970.84;;;17.34;88.58
30708;BME280;17458;48.958;8.284;2022-09-09T01:39:23;99974.28;;;17.27;88.36
30708;BME280;17458;48.958;8.284;2022-09-09T01:42:16;99973.13;;;17.10;90.32
30708;BME280;17458;48.958;8.284;2022-09-09T01:45:02;99978.16;;;17.44;88.11
30708;BME280;17458;48.958;8.284;2022-09-09T01:47:48;99962.94;;;17.43;88.77
30708;BME280;17458;48.958;8.284;2022-09-09T01:50:41;99958.09;;;17.21;90.50
30708;BME280;17458;48.958;8.284;2022-09-09T01:53:25;99957.47;;;17.35;89.74
30708;BME280;17458;48.958;8.284;2022-09-09T01:56:25;99956.41;;;17.27;90.71
30708;BME280;17458;48.958;8.284;2022-09-09T01:59:34;99942.19;;;17.31;89.61
30708;BME280;17458;48.958;8.284;2022-09-09T02:02:32;99929.69;;;17.33;88.73
30708;BME280;17458;48.958;8.284;2022-09-09T02:05:39;99934.13;;;17.31;89.33
30708;BME280;17458;48.958;8.284;2022-09-09T02:08:44;99929.47;;;17.20;88.30
30708;BME280;17458;48.958;8.284;2022-09-09T02:11:31;99936.34;;;17.04;88.88
30708;BME280;17458;48.958;8.284;2022-09-09T02:14:30;99939.25;;;17.18;88.59
30708;BME280;17458;48.958;8.284;2022-09-09T02:17:30;99938.22;;;17.08;88.96
30708;BME280;17458;48.958;8.284;2022-09-09T02:20:23;99930.91;;;16.98;89.72
30708;BME280;17458;48.958;8.284;2022-09-09T02:23:14;99930.38;;;17.20;87.96
30708;BME280;17458;48.958;8.284;2022-09-09T02:26:01;99930.69;;;17.40;86.79
30708;BME280;17458;48.958;8.284;2022-09-09T02:28:49;99926.22;;;17.42;86.81
30708;BME280;17458;48.958;8.284;2022-09-09T02:31:35;99929.91;;;17.47;86.37
30708;BME280;17458;48.958;8.284;2022-09-09T02:34:24;99928.88;;;17.38;86.72
30708;BME280;17458;48.958;8.284;2022-09-09T02:37:12;99926.69;;;17.15;87.14
30708;BME280;17458;48.958;8.284;2022-09-09T02:40:09;99934.88;;;17.21;86.93
30708;BME280;17458;48.958;8.284;2022-09-09T02:42:57;99918.69;;;17.18;87.22
30708;BME280;17458;48.958;8.284;2022-09-09T02:46:07;99907.78;;;17.06;87.54
30708;BME280;17458;48.958;8.284;2022-09-09T02:49:02;99918.66;;;17.15;87.62
30708;BME280;17458;48.958;8.284;2022-09-09T02:52:00;99916.53;;;16.94;88.81
30708;BME280;17458;48.958;8.284;2022-09-09T02:54:48;99921.94;;;16.97;88.59
30708;BME280;17458;48.958;8.284;2022-09-09T02:57:34;99922.13;;;17.08;88.52
30708;BME280;17458;48.958;8.284;2022-09-09T03:00:25;99907.09;;;17.19;87.82
30708;BME280;17458;48.958;8.284;2022-09-09T03:03:14;99903.50;;;17.19;87.95
30708;BME280;17458;48.958;8.284;2022-09-09T03:06:00;99906.09;;;17.14;88.05
30708;BME280;17458;48.958;8.284;2022-09-09T03:08:45;99919.31;;;17.02;88.57
30708;BME280;17458;48.958;8.284;2022-09-09T03:11:29;99927.19;;;16.91;89.14
30708;BME280;17458;48.958;8.284;2022-09-09T03:14:15;99924.53;;;16.93;88.16
30708;BME280;17458;48.958;8.284;2022-09-09T03:17:00;99927.06;;;16.85;89.99
30708;BME280;17458;48.958;8.284;2022-09-09T03:19:49;99930.88;;;16.99;88.33
30708;BME280;17458;48.958;8.284;2022-09-09T03:22:34;99936.19;;;16.95;88.87
30708;BME280;17458;48.958;8.284;2022-09-09T03:25:19;99929.97;;;16.96;88.31
30708;BME280;17458;48.958;8.284;2022-09-09T03:28:04;99935.31;;;16.96;88.27
30708;BME280;17458;48.958;8.284;2022-09-09T03:30:47;99932.03;;;17.12;87.21
30708;BME280;17458;48.958;8.284;2022-09-09T03:33:32;99928.66;;;17.24;86.33
30708;BME280;17458;48.958;8.284;2022-09-09T03:36:18;99922.44;;;17.29;85.81
30708;BME280;17458;48.958;8.284;2022-09-09T03:39:02;99933.00;;;17.17;86.66
30708;BME280;17458;48.958;8.284;2022-09-09T03:41:48;99930.38;;;17.20;86.38
30708;BME280;17458;48.958;8.284;2022-09-09T03:44:33;99925.84;;;17.18;86.79
30708;BME280;17458;48.958;8.284;2022-09-09T03:47:19;99922.22;;;17.16;86.80
30708;BME280;17458;48.958;8.284;2022-09-09T03:50:06;99925.81;;;17.16;86.36
30708;BME280;17458;48.958;8.284;2022-09-09T03:52:54;99939.25;;;17.18;87.00
30708;BME280;17458;48.958;8.284;2022-09-09T03:55:44;99932.97;;;17.16;86.46
30708;BME280;17458;48.958;8.284;2022-09-09T03:58:29;99938.31;;;17.14;86.74
30708;BME280;17458;48.958;8.284;2022-09-09T04:01:19;99938.34;;;17.17;87.13
30708;BME280;17458;48.958;8.284;2022-09-09T04:04:04;99932.03;;;17.14;87.76
30708;BME280;17458;48.958;8.284;2022-09-09T04:06:48;99937.28;;;17.06;87.71
30708;BME280;17458;48.958;8.284;2022-09-09T04:09:33;99939.13;;;17.09;88.10
30708;BME280;17458;48.958;8.284;2022-09-09T04:12:17;99939.19;;;17.15;87.24
30708;BME280;17458;48.958;8.284;2022-09-09T04:15:02;99945.28;;;17.03;88.05
30708;BME280;17458;48.958;8.284;2022-09-09T04:17:46;99938.31;;;17.14;87.29
30708;BME280;17458;48.958;8.284;2022-09-09T04:20:30;99945.13;;;16.94;88.71
30708;BME280;17458;48.958;8.284;2022-09-09T04:23:14;99949.00;;;17.11;88.37
30708;BME280;17458;48.958;8.284;2022-09-09T04:26:00;99950.81;;;17.12;87.72
30708;BME280;17458;48.958;8.284;2022-09-09T04:28:45;99949.97;;;17.16;87.14
30708;BME280;17458;48.958;8.284;2022-09-09T04:31:34;99946.66;;;17.32;85.80
30708;BME280;17458;48.958;8.284;2022-09-09T04:34:19;99944.22;;;17.48;85.04
30708;BME280;17458;48.958;8.284;2022-09-09T04:37:03;99945.06;;;17.45;85.06
30708;BME280;17458;48.958;8.284;2022-09-09T04:39:47;99955.03;;;17.51;83.92
30708;BME280;17458;48.958;8.284;2022-09-09T04:42:36;99954.13;;;17.50;84.70
30708;BME280;17458;48.958;8.284;2022-09-09T04:45:20;99956.72;;;17.46;85.34
30708;BME280;17458;48.958;8.284;2022-09-09T04:48:08;99957.53;;;17.42;84.08
30708;BME280;17458;48.958;8.284;2022-09-09T04:51:01;99963.94;;;17.48;83.93
30708;BME280;17458;48.958;8.284;2022-09-09T04:53:47;99961.13;;;17.42;83.43
30708;BME280;17458;48.958;8.284;2022-09-09T04:56:33;99976.31;;;17.39;83.37
30708;BME280;17458;48.958;8.284;2022-09-09T04:59:18;99977.16;;;17.36;82.81
30708;BME280;17458;48.958;8.284;2022-09-09T05:02:06;99971.53;;;17.21;83.25
30708;BME280;17458;48.958;8.284;2022-09-09T05:04:50;99973.66;;;17.43;83.42
30708;BME280;17458;48.958;8.284;2022-09-09T05:07:34;99981.00;;;17.55;82.42
30708;BME280;17458;48.958;8.284;2022-09-09T05:10:18;99989.19;;;17.61;82.26
30708;BME280;17458;48.958;8.284;2022-09-09T05:13:04;99987.41;;;17.61;81.93
30708;BME280;17458;48.958;8.284;2022-09-09T05:15:53;99984.16;;;17.81;81.49
30708;BME280;17458;48.958;8.284;2022-09-09T05:18:39;99988.50;;;17.73;82.45
30708;BME280;17458;48.958;8.284;2022-09-09T05:21:24;99985.72;;;17.65;81.21
30708;BME280;17458;48.958;8.284;2022-09-09T05:24:10;99983.09;;;17.71;80.57
30708;BME280;17458;48.958;8.284;2022-09-09T05:26:54;99992.19;;;17.79;79.45
30708;BME280;17458;48.958;8.284;2022-09-09T05:29:42;99991.47;;;17.91;79.68
30708;BME280;17458;48.958;8.284;2022-09-09T05:32:29;99987.94;;;17.93;79.14
30708;BME280;17458;48.958;8.284;2022-09-09T05:35:16;99998.53;;;17.86;80.19
30708;BME280;17458;48.958;8.284;2022-09-09T05:38:03;99998.50;;;17.81;78.95
30708;BME280;17458;48.958;8.284;2022-09-09T05:40:47;99996.69;;;17.80;79.57
30708;BME280;17458;48.958;8.284;2022-09-09T05:43:33;99996.84;;;17.91;78.86
30708;BME280;17458;48.958;8.284;2022-09-09T05:46:22;99997.81;;;17.97;78.27
30708;BME280;17458;48.958;8.284;2022-09-09T05:49:08;100004.25;;;18.07;78.43
30708;BME280;17458;48.958;8.284;2022-09-09T05:51:55;99997.06;;;18.06;79.84
30708;BME280;17458;48.958;8.284;2022-09-09T05:54:41;99998.97;;;18.15;79.89
30708;BME280;17458;48.958;8.284;2022-09-09T05:57:26;100006.97;;;18.09;79.74
30708;BME280;17458;48.958;8.284;2022-09-09T06:00:11;100007.63;;;17.92;80.48
30708;BME280;17458;48.958;8.284;2022-09-09T06:03:03;100017.22;;;17.77;79.90
30708;BME280;17458;48.958;8.284;2022-09-09T06:05:57;100017.56;;;17.99;79.93
30708;BME280;17458;48.958;8.284;2022-09-09T06:08:43;100021.50;;;18.23;78.13
30708;BME280;17458;48.958;8.284;2022-09-09T06:11:30;100003.66;;;18.29;77.76
30708;BME280;17458;48.958;8.284;2022-09-09T06:14:20;99999.16;;;18.28;77.82
30708;BME280;17458;48.958;8.284;2022-09-09T06:17:06;100011.63;;;18.25;79.08
30708;BME280;17458;48.958;8.284;2022-09-09T06:19:50;100005.50;;;18.33;78.19
30708;BME280;17458;48.958;8.284;2022-09-09T06:22:39;100009.34;;;18.55;77.45
30708;BME280;17458;48.958;8.284;2022-09-09T06:25:24;100003.19;;;18.61;76.55
30708;BME280;17458;48.958;8.284;2022-09-09T06:28:09;100008.56;;;18.61;76.98
30708;BME280;17458;48.958;8.284;2022-09-09T06:31:07;100005.06;;;18.66;76.71
30708;BME280;17458;48.958;8.284;2022-09-09T06:33:53;100001.50;;;18.70;75.72
30708;BME280;17458;48.958;8.284;2022-09-09T06:36:41;100008.78;;;18.77;75.76
30708;BME280;17458;48.958;8.284;2022-09-09T06:39:26;100009.13;;;19.08;75.01
30708;BME280;17458;48.958;8.284;2022-09-09T06:42:10;100007.31;;;19.07;74.63
30708;BME280;17458;48.958;8.284;2022-09-09T06:45:13;100005.50;;;19.09;74.25
30708;BME280;17458;48.958;8.284;2022-09-09T06:48:06;100005.66;;;19.24;74.46
30708;BME280;17458;48.958;8.284;2022-09-09T06:53:50;100014.78;;;19.40;73.62
30708;BME280;17458;48.958;8.284;2022-09-09T06:56:37;100005.72;;;19.29;74.22
30708;BME280;17458;48.958;8.284;2022-09-09T06:59:26;100013.78;;;19.29;73.76
30708;BME280;17458;48.958;8.284;2022-09-09T07:02:12;100015.81;;;19.50;74.19
30708;BME280;17458;48.958;8.284;2022-09-09T07:04:57;100013.31;;;19.75;71.77
30708;BME280;17458;48.958;8.284;2022-09-09T07:07:42;100012.44;;;19.76;71.25
30708;BME280;17458;48.958;8.284;2022-09-09T07:10:28;100021.34;;;19.69;70.99
30708;BME280;17458;48.958;8.284;2022-09-09T07:13:13;100023.03;;;19.57;71.00
30708;BME280;17458;48.958;8.284;2022-09-09T07:16:07;100025.94;;;19.81;71.92
30708;BME280;17458;48.958;8.284;2022-09-09T07:18:52;100023.31;;;19.93;71.05
30708;BME280;17458;48.958;8.284;2022-09-09T07:21:39;100019.94;;;20.20;70.93
30708;BME280;17458;48.958;8.284;2022-09-09T07:24:27;100027.03;;;20.12;70.76
30708;BME280;17458;48.958;8.284;2022-09-09T07:27:13;100023.13;;;19.69;71.86
30708;BME280;17458;48.958;8.284;2022-09-09T07:29:58;100023.31;;;19.95;70.10
30708;BME280;17458;48.958;8.284;2022-09-09T07:32:42;100013.50;;;20.00;71.32
30708;BME280;17458;48.958;8.284;2022-09-09T07:35:27;100019.94;;;20.26;71.00
30708;BME280;17458;48.958;8.284;2022-09-09T07:38:12;100031.69;;;20.36;71.26
30708;BME280;17458;48.958;8.284;2022-09-09T07:41:05;100023.44;;;20.10;69.92
30708;BME280;17458;48.958;8.284;2022-09-09T07:43:51;100033.28;;;20.03;71.05
30708;BME280;17458;48.958;8.284;2022-09-09T07:46:39;100024.97;;;19.71;70.93
30708;BME280;17458;48.958;8.284;2022-09-09T07:49:26;100031.28;;;19.75;71.12
30708;BME280;17458;48.958;8.284;2022-09-09T07:52:10;100027.84;;;19.97;69.87
30708;BME280;17458;48.958;8.284;2022-09-09T07:54:59;100025.22;;;20.08;70.44
30708;BME280;17458;48.958;8.284;2022-09-09T07:57:46;100026.16;;;20.14;70.59
30708;BME280;17458;48.958;8.284;2022-09-09T08:00:32;100032.53;;;20.29;69.10
30708;BME280;17458;48.958;8.284;2022-09-09T08:03:18;100047.84;;;20.31;70.09
30708;BME280;17458;48.958;8.284;2022-09-09T08:06:08;100052.34;;;20.35;69.06
30708;BME280;17458;48.958;8.284;2022-09-09T08:08:53;100050.63;;;20.43;68.88
30708;BME280;17458;48.958;8.284;2022-09-09T08:11:40;100046.19;;;20.55;68.58
30708;BME280;17458;48.958;8.284;2022-09-09T08:14:24;100051.56;;;20.50;68.82
30708;BME280;17458;48.958;8.284;2022-09-09T08:17:09;100051.53;;;20.44;69.16
30708;BME280;17458;48.958;8.284;2022-09-09T08:19:55;100062.16;;;20.18;72.99
30708;BME280;17458;48.958;8.284;2022-09-09T08:22:43;100064.72;;;20.03;72.32
30708;BME280;17458;48.958;8.284;2022-09-09T08:25:28;100058.50;;;20.13;72.01
30708;BME280;17458;48.958;8.284;2022-09-09T08:28:12;100061.94;;;19.89;72.49
30708;BME280;17458;48.958;8.284;2022-09-09T08:31:11;100060.06;;;19.82;73.60
30708;BME280;17458;48.958;8.284;2022-09-09T08:33:59;100069.13;;;19.93;73.03
30708;BME280;17458;48.958;8.284;2022-09-09T08:36:45;100075.53;;;20.03;73.25
30708;BME280;17458;48.958;8.284;2022-09-09T08:39:30;100074.94;;;20.49;71.70
30708;BME280;17458;48.958;8.284;2022-09-09T08:45:33;100091.63;;;19.95;73.14
30708;BME280;17458;48.958;8.284;2022-09-09T08:51:14;100075.25;;;19.71;77.16
30708;BME280;17458;48.958;8.284;2022-09-09T08:53:59;100085.22;;;19.82;76.46
30708;BME280;17458;48.958;8.284;2022-09-09T08:56:46;100083.16;;;19.50;78.32
30708;BME280;17458;48.958;8.284;2022-09-09T08:59:31;100080.09;;;19.18;78.54
30708;BME280;17458;48.958;8.284;2022-09-09T09:02:16;100079.44;;;19.41;80.36
30708;BME280;17458;48.958;8.284;2022-09-09T09:08:28;100076.94;;;19.58;79.46
30708;BME280;17458;48.958;8.284;2022-09-09T09:11:17;100081.50;;;19.67;79.34
30708;BME280;17458;48.958;8.284;2022-09-09T09:14:19;100077.00;;;19.67;80.15
30708;BME280;17458;48.958;8.284;2022-09-09T09:17:21;100066.22;;;19.66;77.55
30708;BME280;17458;48.958;8.284;2022-09-09T09:20:12;100067.34;;;19.89;78.69
30708;BME280;17458;48.958;8.284;2022-09-09T09:23:02;100062.88;;;19.97;74.02
30708;BME280;17458;48.958;8.284;2022-09-09T09:25:47;100067.56;;;20.21;73.56
30708;BME280;17458;48.958;8.284;2022-09-09T09:28:36;100075.63;;;20.23;73.34
30708;BME280;17458;48.958;8.284;2022-09-09T09:31:27;100073.13;;;20.42;71.49
30708;BME280;17458;48.958;8.284;2022-09-09T09:34:12;100073.88;;;20.28;71.73
30708;BME280;17458;48.958;8.284;2022-09-09T09:36:59;100073.09;;;20.39;71.10
30708;BME280;17458;48.958;8.284;2022-09-09T09:39:49;100078.69;;;20.74;69.21
30708;BME280;17458;48.958;8.284;2022-09-09T09:42:34;100077.97;;;21.35;68.81
30708;BME280;17458;48.958;8.284;2022-09-09T09:45:42;100077.09;;;21.34;67.80
30708;BME280;17458;48.958;8.284;2022-09-09T09:48:31;100073.53;;;21.47;66.67
30708;BME280;17458;48.958;8.284;2022-09-09T09:51:17;100068.91;;;21.14;66.48
30708;BME280;17458;48.958;8.284;2022-09-09T09:54:26;100070.75;;;21.21;66.63
30708;BME280;17458;48.958;8.284;2022-09-09T09:57:15;100073.34;;;20.97;65.83
30708;BME280;17458;48.958;8.284;2022-09-09T10:00:15;100071.72;;;21.46;67.67
30708;BME280;17458;48.958;8.284;2022-09-09T10:03:20;100065.44;;;21.82;64.51
30708;BME280;17458;48.958;8.284;2022-09-09T10:06:06;100067.19;;;21.38;65.52
30708;BME280;17458;48.958;8.284;2022-09-09T10:08:51;100071.69;;;21.31;66.73
30708;BME280;17458;48.958;8.284;2022-09-09T10:27:28;100053.69;;;22.18;60.66
30708;BME280;17458;48.958;8.284;2022-09-09T10:30:35;100055.50;;;22.27;60.15
30708;BME280;17458;48.958;8.284;2022-09-09T10:36:28;100049.22;;;21.60;59.79
30708;BME280;17458;48.958;8.284;2022-09-09T10:39:33;100053.72;;;21.99;60.17
30708;BME280;17458;48.958;8.284;2022-09-09T10:42:21;100048.31;;;22.05;60.50
30708;BME280;17458;48.958;8.284;2022-09-09T10:48:30;100053.75;;;22.00;58.24
30708;BME280;17458;48.958;8.284;2022-09-09T10:57:22;100042.91;;;22.14;60.40
30708;BME280;17458;48.958;8.284;2022-09-09T11:00:21;100040.19;;;22.20;57.64
30708;BME280;17458;48.958;8.284;2022-09-09T11:03:06;100032.88;;;22.52;57.91
30708;BME280;17458;48.958;8.284;2022-09-09T11:06:01;100035.50;;;22.87;58.01
30708;BME280;17458;48.958;8.284;2022-09-09T11:08:48;100040.06;;;22.64;56.60
30708;BME280;17458;48.958;8.284;2022-09-09T11:11:39;100039.94;;;22.94;57.03
30708;BME280;17458;48.958;8.284;2022-09-09T11:14:42;100039.19;;;22.57;55.16
30708;BME280;17458;48.958;8.284;2022-09-09T11:17:35;100030.03;;;22.96;55.63
30708;BME280;17458;48.958;8.284;2022-09-09T11:20:20;100037.06;;;23.26;55.88
30708;BME280;17458;48.958;8.284;2022-09-09T11:23:11;100043.38;;;23.28;54.96
30708;BME280;17458;48.958;8.284;2022-09-09T11:26:00;100036.06;;;23.40;52.01
30708;BME280;17458;48.958;8.284;2022-09-09T11:32:16;100031.13;;;22.44;54.65
30708;BME280;17458;48.958;8.284;2022-09-09T11:38:08;100024.72;;;22.64;58.79
30708;BME280;17458;48.958;8.284;2022-09-09T11:41:07;100023.91;;;22.40;59.70
30708;BME280;17458;48.958;8.284;2022-09-09T11:43:53;100018.53;;;22.27;60.79
30708;BME280;17458;48.958;8.284;2022-09-09T11:46:38;100009.47;;;22.36;60.72
30708;BME280;17458;48.958;8.284;2022-09-09T11:49:40;100008.41;;;22.84;58.99
30708;BME280;17458;48.958;8.284;2022-09-09T11:55:31;100007.66;;;23.91;56.46
30708;BME280;17458;48.958;8.284;2022-09-09T11:58:17;100000.28;;;24.03;54.69
30708;BME280;17458;48.958;8.284;2022-09-09T12:01:13;100013.09;;;23.88;54.47
30708;BME280;17458;48.958;8.284;2022-09-09T12:04:26;100007.09;;;23.49;54.42
30708;BME280;17458;48.958;8.284;2022-09-09T12:13:19;100005.75;;;22.77;56.38
30708;BME280;17458;48.958;8.284;2022-09-09T12:16:04;99986.81;;;22.60;55.87
30708;BME280;17458;48.958;8.284;2022-09-09T12:18:49;99993.19;;;22.57;57.07
30708;BME280;17458;48.958;8.284;2022-09-09T12:24:39;99993.25;;;22.45;57.57
30708;BME280;17458;48.958;8.284;2022-09-09T12:27:28;99997.78;;;22.31;57.77
30708;BME280;17458;48.958;8.284;2022-09-09T12:30:15;99987.81;;;22.44;57.61
30708;BME280;17458;48.958;8.284;2022-09-09T12:33:10;99981.47;;;22.46;57.94
30708;BME280;17458;48.958;8.284;2022-09-09T12:35:58;99980.56;;;22.55;59.18
30708;BME280;17458;48.958;8.284;2022-09-09T12:38:45;99978.47;;;23.13;57.62
30708;BME280;17458;48.958;8.284;2022-09-09T12:41:29;99996.25;;;23.51;55.88
30708;BME280;17458;48.958;8.284;2022-09-09T12:44:13;99980.50;;;23.95;52.50
30708;BME280;17458;48.958;8.284;2022-09-09T12:47:00;99991.63;;;23.66;53.20
30708;BME280;17458;48.958;8.284;2022-09-09T12:49:46;99989.41;;;22.90;55.92
30708;BME280;17458;48.958;8.284;2022-09-09T12:52:35;99997.75;;;22.42;57.78
30708;BME280;17458;48.958;8.284;2022-09-09T12:55:24;99989.75;;;22.01;57.53
30708;BME280;17458;48.958;8.284;2022-09-09T12:58:13;99983.41;;;22.05;57.48
30708;BME280;17458;48.958;8.284;2022-09-09T13:00:59;99992.44;;;22.14;58.40
30708;BME280;17458;48.958;8.284;2022-09-09T13:03:43;99985.13;;;22.33;56.79
30708;BME280;17458;48.958;8.284;2022-09-09T13:06:30;99984.31;;;22.17;57.83
30708;BME280;17458;48.958;8.284;2022-09-09T13:09:15;99993.31;;;22.15;58.56
30708;BME280;17458;48.958;8.284;2022-09-09T13:11:59;99992.34;;;22.42;59.13
30708;BME280;17458;48.958;8.284;2022-09-09T13:14:46;99979.78;;;22.24;58.27
30708;BME280;17458;48.958;8.284;2022-09-09T13:17:31;99963.47;;;22.45;57.85
30708;BME280;17458;48.958;8.284;2022-09-09T13:20:17;99968.53;;;23.11;56.60
30708;BME280;17458;48.958;8.284;2022-09-09T13:23:02;99966.22;;;23.75;52.49
30708;BME280;17458;48.958;8.284;2022-09-09T13:25:59;99967.19;;;23.70;54.33
30708;BME280;17458;48.958;8.284;2022-09-09T13:28:44;99961.97;;;23.42;53.80
30708;BME280;17458;48.958;8.284;2022-09-09T13:31:32;99961.41;;;22.97;54.90
30708;BME280;17458;48.958;8.284;2022-09-09T13:34:28;99955.88;;;23.13;56.13
30708;BME280;17458;48.958;8.284;2022-09-09T13:37:24;99951.47;;;22.98;56.72
30708;BME280;17458;48.958;8.284;2022-09-09T13:40:19;99953.13;;;23.17;57.13
30708;BME280;17458;48.958;8.284;2022-09-09T13:43:10;99957.78;;;23.02;58.95
30708;BME280;17458;48.958;8.284;2022-09-09T13:46:02;99957.63;;;23.21;58.55
30708;BME280;17458;48.958;8.284;2022-09-09T13:48:57;99952.41;;;22.92;56.96
30708;BME280;17458;48.958;8.284;2022-09-09T13:51:44;99955.09;;;22.98;56.93
30708;BME280;17458;48.958;8.284;2022-09-09T13:54:30;99943.38;;;22.93;56.55
30708;BME280;17458;48.958;8.284;2022-09-09T13:57:21;99942.56;;;22.81;57.72
30708;BME280;17458;48.958;8.284;2022-09-09T14:00:10;99930.22;;;22.13;60.99
30708;BME280;17458;48.958;8.284;2022-09-09T14:02:56;99943.78;;;21.88;64.16
30708;BME280;17458;48.958;8.284;2022-09-09T14:05:52;99941.97;;;21.92;63.26
30708;BME280;17458;48.958;8.284;2022-09-09T14:08:42;99943.78;;;21.87;64.27
30708;BME280;17458;48.958;8.284;2022-09-09T14:11:26;99948.25;;;21.91;64.40
30708;BME280;17458;48.958;8.284;2022-09-09T14:14:18;99963.66;;;21.46;65.82
30708;BME280;17458;48.958;8.284;2022-09-09T14:17:03;99959.09;;;21.15;65.07
30708;BME280;17458;48.958;8.284;2022-09-09T14:19:53;99954.66;;;21.43;64.60
30708;BME280;17458;48.958;8.284;2022-09-09T14:22:37;99950.16;;;21.33;66.26
30708;BME280;17458;48.958;8.284;2022-09-09T14:25:23;99946.50;;;21.63;66.10
30708;BME280;17458;48.958;8.284;2022-09-09T14:28:09;99960.94;;;21.25;68.39
30708;BME280;17458;48.958;8.284;2022-09-09T14:30:53;99958.22;;;21.49;67.98
30708;BME280;17458;48.958;8.284;2022-09-09T14:33:37;99954.63;;;21.17;68.70
30708;BME280;17458;48.958;8.284;2022-09-09T14:36:21;99965.44;;;21.26;69.56
30708;BME280;17458;48.958;8.284;2022-09-09T14:39:05;99996.91;;;21.12;71.78
30708;BME280;17458;48.958;8.284;2022-09-09T14:41:49;100026.09;;;20.01;77.78
30708;BME280;17458;48.958;8.284;2022-09-09T14:44:33;100015.66;;;19.34;76.11
30708;BME280;17458;48.958;8.284;2022-09-09T14:47:17;100014.94;;;19.54;75.48
30708;BME280;17458;48.958;8.284;2022-09-09T14:50:01;99975.63;;;19.75;77.03
30708;BME280;17458;48.958;8.284;2022-09-09T14:52:48;99964.94;;;19.94;74.34
30708;BME280;17458;48.958;8.284;2022-09-09T14:55:32;99966.84;;;20.11;73.15
30708;BME280;17458;48.958;8.284;2022-09-09T14:58:16;99974.91;;;20.08;71.69
30708;BME280;17458;48.958;8.284;2022-09-09T15:01:19;99983.06;;;20.21;74.51
30708;BME280;17458;48.958;8.284;2022-09-09T15:04:04;99979.63;;;20.44;73.31
30708;BME280;17458;48.958;8.284;2022-09-09T15:06:48;99980.59;;;20.60;74.84
30708;BME280;17458;48.958;8.284;2022-09-09T15:09:33;99982.44;;;20.76;75.87
30708;BME280;17458;48.958;8.284;2022-09-09T15:12:17;99987.91;;;21.04;75.21
30708;BME280;17458;48.958;8.284;2022-09-09T15:15:05;99986.16;;;21.41;74.86
30708;BME280;17458;48.958;8.284;2022-09-09T15:17:49;99981.66;;;21.70;70.85
30708;BME280;17458;48.958;8.284;2022-09-09T15:20:33;99987.91;;;21.95;71.63
30708;BME280;17458;48.958;8.284;2022-09-09T15:23:16;99987.06;;;22.01;72.22
30708;BME280;17458;48.958;8.284;2022-09-09T15:26:02;99986.13;;;22.08;72.74
30708;BME280;17458;48.958;8.284;2022-09-09T15:28:46;99988.84;;;22.03;71.82
30708;BME280;17458;48.958;8.284;2022-09-09T15:31:31;99995.13;;;22.13;68.90
30708;BME280;17458;48.958;8.284;2022-09-09T15:34:15;99998.72;;;21.92;69.05
30708;BME280;17458;48.958;8.284;2022-09-09T15:36:59;99999.66;;;21.80;70.11
30708;BME280;17458;48.958;8.284;2022-09-09T15:39:46;99998.75;;;22.06;70.52
30708;BME280;17458;48.958;8.284;2022-09-09T15:42:31;100004.13;;;22.25;73.26
30708;BME280;17458;48.958;8.284;2022-09-09T15:45:15;99994.25;;;21.85;72.69
30708;BME280;17458;48.958;8.284;2022-09-09T15:48:00;100002.38;;;21.44;69.01
30708;BME280;17458;48.958;8.284;2022-09-09T15:50:45;99999.66;;;21.30;66.15
30708;BME280;17458;48.958;8.284;2022-09-09T15:53:29;100005.00;;;21.09;65.78
30708;BME280;17458;48.958;8.284;2022-09-09T15:56:16;100026.47;;;20.66;67.42
30708;BME280;17458;48.958;8.284;2022-09-09T15:59:03;100026.13;;;20.11;66.27
30708;BME280;17458;48.958;8.284;2022-09-09T16:01:48;100022.56;;;20.12;68.05
30708;BME280;17458;48.958;8.284;2022-09-09T16:04:35;100020.50;;;19.75;70.56
30708;BME280;17458;48.958;8.284;2022-09-09T16:07:18;100016.72;;;19.52;70.42
30708;BME280;17458;48.958;8.284;2022-09-09T16:10:05;100025.53;;;19.38;68.25